createdAt,value
2023-05-08T00:01:46.269Z,4.50
2023-05-08T00:04:14.440Z,4.88
2023-05-08T00:06:43.936Z,4.53
2023-05-08T00:09:11.791Z,4.65
2023-05-08T00:11:39.708Z,4.80
2023-05-08T00:14:07.883Z,5.00
2023-05-08T00:16:35.868Z,4.57
2023-05-08T00:19:03.897Z,4.90
2023-05-08T00:21:32.044Z,4.70
2023-05-08T00:24:01.282Z,5.03
2023-05-08T00:26:29.227Z,4.63
2023-05-08T00:28:57.271Z,4.60
2023-05-08T00:31:25.173Z,4.40
2023-05-08T00:33:53.218Z,4.93
2023-05-08T00:36:21.345Z,4.50
2023-05-08T00:38:49.255Z,4.80
2023-05-08T00:41:18.572Z,4.65
2023-05-08T00:43:46.565Z,4.80
2023-05-08T00:46:14.487Z,4.88
2023-05-08T00:48:42.397Z,4.57
2023-05-08T00:51:11.253Z,4.75
2023-05-08T00:53:40.933Z,4.80
2023-05-08T00:56:09.085Z,4.70
2023-05-08T00:58:38.323Z,4.60
2023-05-08T01:01:06.540Z,4.85
2023-05-08T01:03:34.635Z,4.32
2023-05-08T01:06:03.342Z,4.80
2023-05-08T01:08:32.171Z,4.65
2023-05-08T01:11:07.683Z,4.57
2023-05-08T01:13:47.811Z,4.55
2023-05-08T01:16:16.947Z,5.18
2023-05-08T01:18:47.187Z,4.85
2023-05-08T01:21:19.231Z,4.45
2023-05-08T01:24:20.948Z,4.72
2023-05-08T01:27:29.444Z,4.40
2023-05-08T01:30:34.735Z,4.72
2023-05-08T01:33:06.588Z,4.47
2023-05-08T01:35:37.756Z,4.93
2023-05-08T01:38:09.690Z,4.72
2023-05-08T01:40:41.900Z,5.15
2023-05-08T01:43:14.803Z,4.63
2023-05-08T01:45:46.752Z,4.75
2023-05-08T01:48:23.722Z,4.72
2023-05-08T01:51:08.115Z,4.65
2023-05-08T01:53:37.794Z,4.95
2023-05-08T01:56:11.108Z,5.07
2023-05-08T01:58:39.169Z,4.93
2023-05-08T02:01:07.270Z,5.10
2023-05-08T02:03:36.770Z,5.50
2023-05-08T02:06:05.052Z,5.00
2023-05-08T02:08:32.973Z,5.43
2023-05-08T02:11:00.971Z,5.40
2023-05-08T02:13:29.056Z,5.28
2023-05-08T02:15:57.128Z,5.20
2023-05-08T02:18:25.587Z,5.47
2023-05-08T02:20:56.344Z,5.40
2023-05-08T02:23:25.597Z,5.05
2023-05-08T02:25:53.480Z,5.50
2023-05-08T02:28:21.349Z,5.60
2023-05-08T02:30:49.254Z,5.47
2023-05-08T02:33:17.659Z,5.25
2023-05-08T02:35:46.012Z,5.60
2023-05-08T02:38:15.300Z,5.47
2023-05-08T02:40:45.325Z,5.60
2023-05-08T02:43:13.587Z,5.80
2023-05-08T02:45:44.576Z,5.45
2023-05-08T02:48:15.478Z,5.22
2023-05-08T02:50:46.741Z,5.70
2023-05-08T02:53:19.654Z,5.63
2023-05-08T02:55:49.649Z,5.90
2023-05-08T02:58:20.453Z,5.80
2023-05-08T03:00:50.191Z,5.55
2023-05-08T03:03:20.979Z,6.00
2023-05-08T03:05:53.597Z,5.38
2023-05-08T03:08:27.077Z,5.75
2023-05-08T03:10:56.622Z,5.40
2023-05-08T03:13:24.662Z,5.90
2023-05-08T03:15:55.164Z,5.50
2023-05-08T03:18:25.507Z,5.35
2023-05-08T03:20:55.305Z,6.22
2023-05-08T03:23:25.052Z,5.90
2023-05-08T03:25:52.974Z,5.47
2023-05-08T03:28:21.546Z,6.10
2023-05-08T03:30:50.183Z,5.90
2023-05-08T03:33:18.667Z,6.18
2023-05-08T03:35:46.632Z,6.03
2023-05-08T03:38:14.586Z,5.80
2023-05-08T03:40:44.509Z,5.47
2023-05-08T03:43:12.705Z,5.80
2023-05-08T03:45:41.256Z,5.57
2023-05-08T03:48:09.894Z,5.88
2023-05-08T03:50:38.754Z,5.93
2023-05-08T03:53:09.796Z,5.53
2023-05-08T03:55:38.382Z,6.22
2023-05-08T03:58:15.019Z,6.65
2023-05-08T04:00:47.879Z,5.78
2023-05-08T04:03:22.862Z,6.13
2023-05-08T04:05:53.325Z,5.75
2023-05-08T04:08:22.819Z,6.10
2023-05-08T04:10:56.034Z,5.38
2023-05-08T04:13:28.255Z,5.90
2023-05-08T04:16:01.875Z,6.30
2023-05-08T04:18:30.265Z,5.55
2023-05-08T04:21:00.858Z,5.72
2023-05-08T04:23:29.215Z,5.72
2023-05-08T04:25:57.697Z,5.57
2023-05-08T04:28:26.985Z,5.88
2023-05-08T04:30:55.113Z,5.80
2023-05-08T04:33:23.555Z,5.82
2023-05-08T04:35:52.410Z,5.68
2023-05-08T04:38:20.393Z,6.20
2023-05-08T04:40:48.371Z,6.00
2023-05-08T04:43:16.634Z,5.63
2023-05-08T04:45:46.196Z,5.85
2023-05-08T04:48:14.692Z,5.80
2023-05-08T04:50:42.585Z,5.95
2023-05-08T04:53:10.506Z,5.80
2023-05-08T04:55:38.447Z,5.72
2023-05-08T04:58:06.421Z,6.18
2023-05-08T05:00:35.504Z,6.07
2023-05-08T05:03:05.216Z,6.50
2023-05-08T05:05:33.563Z,6.32
2023-05-08T05:08:01.502Z,5.72
2023-05-08T05:10:29.493Z,6.40
2023-05-08T05:12:57.548Z,6.30
2023-05-08T05:15:25.695Z,5.75
2023-05-08T05:17:53.902Z,6.03
2023-05-08T05:20:23.493Z,5.90
2023-05-08T05:22:51.415Z,5.88
2023-05-08T05:25:19.507Z,5.90
2023-05-08T05:27:47.455Z,6.13
2023-05-08T05:30:16.450Z,5.90
2023-05-08T05:32:44.964Z,6.85
2023-05-08T05:35:13.201Z,6.35
2023-05-08T05:37:43.264Z,7.38
2023-05-08T05:40:13.250Z,7.25
2023-05-08T05:42:41.598Z,7.03
2023-05-08T05:45:11.469Z,7.00
2023-05-08T05:47:40.206Z,7.75
2023-05-08T05:50:08.746Z,6.63
2023-05-08T05:52:36.954Z,6.70
2023-05-08T05:55:07.051Z,6.75
2023-05-08T05:57:34.996Z,7.18
2023-05-08T06:00:03.947Z,7.30
2023-05-08T06:02:42.642Z,8.65
2023-05-08T06:05:13.812Z,8.20
2023-05-08T06:07:41.908Z,8.65
2023-05-08T06:10:12.119Z,9.65
2023-05-08T06:12:40.112Z,10.68
2023-05-08T06:15:09.846Z,10.63
2023-05-08T06:17:38.042Z,10.10
2023-05-08T06:20:07.354Z,9.52
2023-05-08T06:22:37.218Z,10.45
2023-05-08T06:25:07.020Z,10.02
2023-05-08T06:27:36.360Z,9.40
2023-05-08T06:30:04.676Z,10.05
2023-05-08T06:32:32.607Z,10.07
2023-05-08T06:35:00.621Z,9.57
2023-05-08T06:37:28.532Z,9.52
2023-05-08T06:40:10.348Z,9.80
2023-05-08T06:42:40.722Z,9.43
2023-05-08T06:45:09.744Z,9.63
2023-05-08T06:47:37.848Z,9.23
2023-05-08T06:50:06.793Z,8.70
2023-05-08T06:52:34.702Z,9.05
2023-05-08T06:55:02.614Z,8.93
2023-05-08T06:57:30.696Z,8.38
2023-05-08T06:59:59.969Z,8.10
2023-05-08T07:02:28.206Z,8.10
2023-05-08T07:04:56.245Z,7.93
2023-05-08T07:07:24.437Z,8.57
2023-05-08T07:09:52.333Z,8.23
2023-05-08T07:12:20.213Z,7.95
2023-05-08T07:14:48.072Z,7.95
2023-05-08T07:17:17.539Z,7.63
2023-05-08T07:19:45.599Z,7.30
2023-05-08T07:22:13.525Z,7.50
2023-05-08T07:24:41.502Z,7.38
2023-05-08T07:27:09.927Z,7.90
2023-05-08T07:29:37.814Z,6.90
2023-05-08T07:32:08.486Z,6.95
2023-05-08T07:34:37.837Z,6.97
2023-05-08T07:37:05.915Z,7.32
2023-05-08T07:39:33.918Z,7.50
2023-05-08T07:42:01.820Z,7.45
2023-05-08T07:44:31.769Z,7.15
2023-05-08T07:47:05.289Z,7.72
2023-05-08T07:49:33.213Z,15.10
2023-05-08T07:52:02.704Z,13.98
2023-05-08T07:54:30.677Z,17.55
2023-05-08T07:56:58.539Z,14.77
2023-05-08T07:59:26.448Z,14.07
2023-05-08T08:01:54.450Z,14.77
2023-05-08T08:04:22.441Z,18.38
2023-05-08T08:06:50.581Z,17.60
2023-05-08T08:09:19.816Z,14.27
2023-05-08T08:11:47.723Z,15.20
2023-05-08T08:14:15.865Z,16.77
2023-05-08T08:16:43.837Z,15.32
2023-05-08T08:19:11.781Z,14.32
2023-05-08T08:21:43.357Z,14.25
2023-05-08T08:24:11.270Z,13.23
2023-05-08T08:26:40.730Z,12.48
2023-05-08T08:29:08.677Z,13.23
2023-05-08T08:31:36.641Z,11.93
2023-05-08T08:34:04.557Z,11.02
2023-05-08T08:36:32.773Z,11.30
2023-05-08T08:39:00.796Z,10.65
2023-05-08T08:41:29.187Z,10.32
2023-05-08T08:43:58.465Z,10.63
2023-05-08T08:46:27.174Z,11.48
2023-05-08T08:48:55.743Z,9.85
2023-05-08T08:51:28.349Z,9.63
2023-05-08T08:54:00.990Z,9.82
2023-05-08T08:56:28.876Z,8.70
2023-05-08T08:58:59.262Z,8.50
2023-05-08T09:01:29.288Z,8.73
2023-05-08T09:03:59.079Z,8.32
2023-05-08T09:06:27.566Z,8.85
2023-05-08T09:08:56.731Z,8.00
2023-05-08T09:11:24.678Z,7.88
2023-05-08T09:13:52.638Z,8.10
2023-05-08T09:16:22.073Z,8.55
2023-05-08T09:18:50.011Z,7.80
2023-05-08T09:21:17.916Z,7.68
2023-05-08T09:23:58.377Z,7.82
2023-05-08T09:26:34.351Z,7.30
2023-05-08T09:29:15.383Z,7.28
2023-05-08T09:31:45.680Z,7.85
2023-05-08T09:34:23.627Z,7.35
2023-05-08T09:36:51.494Z,8.38
2023-05-08T09:39:23.215Z,7.15
2023-05-08T09:41:58.678Z,7.00
2023-05-08T09:44:26.635Z,6.75
2023-05-08T09:47:13.145Z,7.25
2023-05-08T09:49:41.176Z,6.75
2023-05-08T09:52:09.252Z,6.20
2023-05-08T09:54:37.178Z,6.28
2023-05-08T09:57:13.072Z,6.43
2023-05-08T09:59:40.965Z,6.03
2023-05-08T10:02:16.229Z,5.40
2023-05-08T10:04:44.313Z,6.13
2023-05-08T10:07:12.308Z,6.65
2023-05-08T10:09:50.432Z,6.57
2023-05-08T10:12:18.935Z,6.00
2023-05-08T10:14:47.121Z,6.00
2023-05-08T10:17:17.895Z,6.03
2023-05-08T10:19:46.711Z,5.85
2023-05-08T10:22:14.630Z,6.15
2023-05-08T10:24:42.575Z,5.63
2023-05-08T10:27:13.465Z,6.13
2023-05-08T10:29:43.531Z,5.82
2023-05-08T10:32:11.648Z,5.65
2023-05-08T10:34:42.110Z,5.47
2023-05-08T10:37:10.590Z,5.75
2023-05-08T10:39:38.690Z,5.18
2023-05-08T10:42:06.810Z,5.43
2023-05-08T10:44:34.714Z,5.50
2023-05-08T10:47:06.045Z,5.32
2023-05-08T10:49:39.364Z,5.47
2023-05-08T10:52:17.182Z,5.25
2023-05-08T10:54:52.927Z,5.15
2023-05-08T10:57:20.903Z,5.10
2023-05-08T10:59:48.839Z,5.15
2023-05-08T11:02:16.821Z,5.18
2023-05-08T11:04:44.975Z,5.32
2023-05-08T11:07:14.324Z,4.88
2023-05-08T11:09:48.749Z,4.88
2023-05-08T11:12:25.124Z,4.93
2023-05-08T11:14:58.868Z,5.15
2023-05-08T11:17:26.970Z,4.80
2023-05-08T11:19:57.210Z,4.65
2023-05-08T11:22:30.487Z,4.60
2023-05-08T11:25:02.936Z,4.75
2023-05-08T11:27:55.810Z,4.95
2023-05-08T11:30:25.594Z,5.00
2023-05-08T11:33:33.018Z,4.80
2023-05-08T11:36:01.548Z,4.65
2023-05-08T11:38:32.628Z,4.70
2023-05-08T11:41:01.919Z,4.28
2023-05-08T11:43:58.864Z,4.70
2023-05-08T11:46:32.455Z,3.90
2023-05-08T11:49:01.837Z,4.25
2023-05-08T11:51:32.395Z,4.22
2023-05-08T11:54:01.707Z,4.38
2023-05-08T11:56:29.653Z,4.40
2023-05-08T11:59:08.781Z,4.05
2023-05-08T12:01:36.888Z,4.18
2023-05-08T12:04:05.940Z,3.83
2023-05-08T12:06:34.606Z,3.95
2023-05-08T12:09:05.392Z,4.13
2023-05-08T12:11:33.380Z,3.95
2023-05-08T12:14:01.362Z,3.92
2023-05-08T12:16:29.371Z,4.05
2023-05-08T12:18:57.794Z,3.55
2023-05-08T12:21:25.704Z,3.95
2023-05-08T12:23:54.961Z,4.00
2023-05-08T12:26:24.249Z,3.85
2023-05-08T12:28:55.723Z,3.42
2023-05-08T12:31:23.927Z,3.35
2023-05-08T12:33:51.950Z,3.58
2023-05-08T12:36:19.932Z,3.45
2023-05-08T12:38:47.852Z,3.50
2023-05-08T12:41:15.798Z,3.85
2023-05-08T12:43:48.998Z,3.63
2023-05-08T12:46:17.817Z,3.55
2023-05-08T12:48:45.801Z,3.90
2023-05-08T12:51:13.707Z,3.83
2023-05-08T12:53:41.609Z,3.40
2023-05-08T12:56:09.812Z,3.58
2023-05-08T12:58:37.854Z,3.50
2023-05-08T13:01:09.998Z,2.80
2023-05-08T13:03:38.379Z,3.22
2023-05-08T13:06:06.656Z,3.28
2023-05-08T13:08:35.761Z,3.17
2023-05-08T13:11:04.593Z,3.20
2023-05-08T13:13:33.811Z,3.20
2023-05-08T13:16:03.870Z,2.97
2023-05-08T13:18:33.220Z,3.08
2023-05-08T13:21:02.102Z,3.30
2023-05-08T13:23:30.073Z,2.97
2023-05-08T13:25:58.025Z,2.92
2023-05-08T13:28:25.984Z,3.22
2023-05-08T13:30:53.905Z,2.97
2023-05-08T13:33:21.868Z,2.95
2023-05-08T13:35:51.104Z,3.00
2023-05-08T13:38:19.087Z,2.95
2023-05-08T13:40:47.221Z,3.10
2023-05-08T13:43:15.101Z,2.90
2023-05-08T13:45:43.089Z,3.05
2023-05-08T13:48:11.051Z,2.75
2023-05-08T13:50:39.025Z,2.47
2023-05-08T13:53:08.277Z,2.75
2023-05-08T13:55:36.990Z,2.67
2023-05-08T13:58:04.916Z,2.80
2023-05-08T14:00:32.789Z,2.90
2023-05-08T14:03:00.777Z,3.00
2023-05-08T14:05:28.774Z,2.38
2023-05-08T14:07:56.716Z,2.38
2023-05-08T14:10:26.194Z,2.50
2023-05-08T14:12:54.152Z,2.45
2023-05-08T14:15:23.479Z,2.60
2023-05-08T14:17:54.922Z,2.63
2023-05-08T14:20:22.887Z,2.70
2023-05-08T14:22:53.866Z,2.20
2023-05-08T14:25:21.983Z,2.60
2023-05-08T14:27:51.343Z,2.33
2023-05-08T14:30:19.310Z,2.20
2023-05-08T14:32:47.251Z,2.38
2023-05-08T14:35:15.331Z,2.20
2023-05-08T14:37:43.517Z,2.80
2023-05-08T14:40:11.695Z,2.38
2023-05-08T14:42:39.604Z,2.42
2023-05-08T14:45:10.345Z,2.10
2023-05-08T14:47:38.790Z,2.28
2023-05-08T14:50:07.620Z,2.30
2023-05-08T14:52:35.542Z,2.42
2023-05-08T14:55:03.709Z,2.38
2023-05-08T14:57:31.940Z,2.55
2023-05-08T14:59:59.888Z,2.50
2023-05-08T15:02:29.181Z,2.58
2023-05-08T15:04:57.195Z,2.35
2023-05-08T15:07:25.112Z,2.45
2023-05-08T15:09:53.708Z,2.10
2023-05-08T15:12:21.630Z,2.33
2023-05-08T15:14:49.551Z,2.40
2023-05-08T15:17:17.579Z,2.03
2023-05-08T15:19:46.818Z,2.40
2023-05-08T15:22:14.725Z,2.38
2023-05-08T15:24:42.614Z,2.13
2023-05-08T15:27:11.658Z,2.40
2023-05-08T15:29:39.735Z,2.38
2023-05-08T15:32:07.806Z,2.15
2023-05-08T15:34:35.928Z,2.00
2023-05-08T15:37:05.992Z,2.45
2023-05-08T15:39:36.606Z,2.10
2023-05-08T15:42:05.136Z,2.28
2023-05-08T15:44:52.668Z,2.08
2023-05-08T15:47:22.777Z,2.33
2023-05-08T15:49:50.739Z,2.50
2023-05-08T15:52:20.051Z,2.20
2023-05-08T15:54:48.047Z,2.20
2023-05-08T15:57:15.982Z,2.15
2023-05-08T15:59:44.087Z,2.00
2023-05-08T16:02:12.001Z,2.40
2023-05-08T16:04:39.979Z,2.30
2023-05-08T16:07:07.977Z,2.15
2023-05-08T16:09:37.220Z,2.40
2023-05-08T16:12:05.634Z,2.17
2023-05-08T16:14:33.494Z,2.10
2023-05-08T16:17:01.387Z,2.10
2023-05-08T16:19:29.772Z,2.20
2023-05-08T16:21:57.777Z,2.10
2023-05-08T16:24:25.759Z,2.38
2023-05-08T16:26:55.031Z,2.10
2023-05-08T16:29:22.906Z,2.00
2023-05-08T16:31:51.107Z,2.60
2023-05-08T16:34:19.107Z,2.08
2023-05-08T16:36:47.070Z,2.20
2023-05-08T16:39:14.989Z,2.22
2023-05-08T16:41:43.014Z,2.10
2023-05-08T16:44:12.549Z,2.05
2023-05-08T16:46:40.473Z,2.20
2023-05-08T16:49:08.379Z,2.20
2023-05-08T16:51:36.287Z,2.35
2023-05-08T16:54:04.359Z,2.20
2023-05-08T16:56:32.404Z,2.50
2023-05-08T16:59:01.376Z,2.33
2023-05-08T17:01:30.805Z,2.20
2023-05-08T17:03:58.742Z,2.20
2023-05-08T17:06:26.667Z,2.22
2023-05-08T17:08:54.550Z,2.10
2023-05-08T17:11:22.804Z,2.60
2023-05-08T17:13:50.693Z,2.10
2023-05-08T17:16:20.495Z,2.03
2023-05-08T17:18:49.999Z,2.22
2023-05-08T17:21:17.956Z,2.05
2023-05-08T17:23:46.554Z,2.10
2023-05-08T17:26:14.473Z,2.13
2023-05-08T17:28:42.515Z,2.28
2023-05-08T17:31:10.544Z,2.50
2023-05-08T17:33:38.586Z,2.17
2023-05-08T17:36:08.821Z,2.25
2023-05-08T17:38:43.079Z,2.20
2023-05-08T17:41:11.057Z,2.13
2023-05-08T17:43:39.047Z,2.15
2023-05-08T17:46:07.113Z,2.10
2023-05-08T17:48:35.097Z,2.20
2023-05-08T17:51:03.325Z,2.50
2023-05-08T17:53:32.785Z,3.10
2023-05-08T17:56:00.751Z,2.35
2023-05-08T17:58:28.660Z,2.50
2023-05-08T18:00:57.005Z,3.25
2023-05-08T18:03:25.273Z,2.72
2023-05-08T18:05:53.303Z,2.70
2023-05-08T18:08:21.251Z,2.25
2023-05-08T18:10:50.482Z,2.42
2023-05-08T18:13:18.497Z,2.67
2023-05-08T18:15:46.475Z,2.60
2023-05-08T18:18:14.413Z,2.40
2023-05-08T18:20:42.347Z,2.58
2023-05-08T18:23:10.346Z,2.65
2023-05-08T18:25:38.302Z,2.58
2023-05-08T18:28:07.841Z,2.50
2023-05-08T18:30:36.407Z,2.40
2023-05-08T18:33:04.571Z,2.30
2023-05-08T18:35:32.445Z,2.55
2023-05-08T18:38:00.379Z,2.30
2023-05-08T18:40:28.289Z,2.85
2023-05-08T18:42:56.211Z,2.55
2023-05-08T18:45:25.529Z,2.45
2023-05-08T18:47:54.201Z,2.50
2023-05-08T18:50:22.201Z,2.90
2023-05-08T18:52:50.140Z,2.60
2023-05-08T18:55:18.172Z,2.40
2023-05-08T18:57:46.135Z,2.20
2023-05-08T19:00:16.092Z,2.35
2023-05-08T19:02:45.513Z,2.72
2023-05-08T19:05:13.491Z,2.42
2023-05-08T19:07:41.752Z,2.33
2023-05-08T19:10:10.218Z,2.47
2023-05-08T19:12:38.154Z,2.70
2023-05-08T19:15:08.687Z,2.30
2023-05-08T19:17:36.858Z,2.80
2023-05-08T19:20:07.409Z,2.60
2023-05-08T19:22:36.080Z,2.50
2023-05-08T19:25:04.253Z,2.55
2023-05-08T19:27:32.244Z,2.42
2023-05-08T19:30:00.247Z,2.53
2023-05-08T19:32:28.673Z,2.70
2023-05-08T19:34:57.429Z,2.70
2023-05-08T19:37:26.827Z,2.60
2023-05-08T19:39:54.743Z,2.60
2023-05-08T19:42:22.757Z,2.53
2023-05-08T19:44:50.748Z,2.50
2023-05-08T19:47:18.595Z,2.80
2023-05-08T19:49:46.462Z,3.00
2023-05-08T19:52:14.342Z,2.45
2023-05-08T19:54:45.236Z,2.60
2023-05-08T19:57:13.117Z,2.60
2023-05-08T19:59:40.999Z,2.47
2023-05-08T20:02:08.890Z,2.35
2023-05-08T20:04:51.875Z,2.45
2023-05-08T20:07:24.669Z,2.72
2023-05-08T20:09:54.134Z,2.75
2023-05-08T20:12:22.071Z,2.78
2023-05-08T20:14:50.011Z,2.55
2023-05-08T20:17:17.928Z,2.45
2023-05-08T20:19:45.866Z,3.70
2023-05-08T20:22:13.777Z,2.67
2023-05-08T20:24:41.713Z,2.95
2023-05-08T20:27:11.104Z,2.75
2023-05-08T20:29:39.001Z,2.92
2023-05-08T20:32:08.243Z,3.22
2023-05-08T20:34:36.257Z,2.88
2023-05-08T20:37:04.235Z,2.90
2023-05-08T20:39:32.198Z,3.13
2023-05-08T20:42:00.182Z,3.20
2023-05-08T20:44:29.430Z,3.53
2023-05-08T20:46:57.449Z,3.10
2023-05-08T20:49:26.017Z,2.80
2023-05-08T20:51:53.909Z,2.88
2023-05-08T20:54:22.395Z,3.28
2023-05-08T20:56:50.366Z,3.17
2023-05-08T20:59:18.758Z,3.15
2023-05-08T21:01:49.375Z,3.17
2023-05-08T21:04:17.370Z,3.30
2023-05-08T21:06:45.303Z,3.20
2023-05-08T21:09:13.202Z,3.00
2023-05-08T21:11:41.108Z,2.95
2023-05-08T21:14:09.120Z,3.47
2023-05-08T21:16:37.117Z,3.10
2023-05-08T21:19:06.365Z,3.08
2023-05-08T21:21:34.290Z,3.08
2023-05-08T21:24:02.185Z,3.33
2023-05-08T21:26:30.125Z,3.20
2023-05-08T21:28:58.625Z,3.45
2023-05-08T21:31:28.706Z,3.38
2023-05-08T21:33:56.861Z,3.40
2023-05-08T21:36:26.137Z,3.33
2023-05-08T21:38:54.050Z,3.70
2023-05-08T21:41:22.227Z,3.20
2023-05-08T21:43:50.113Z,3.30
2023-05-08T21:46:18.017Z,3.30
2023-05-08T21:48:46.013Z,3.45
2023-05-08T21:51:13.946Z,3.50
2023-05-08T21:53:43.219Z,3.78
2023-05-08T21:56:11.157Z,3.42
2023-05-08T21:58:39.032Z,3.25
2023-05-08T22:01:07.041Z,3.40
2023-05-08T22:03:35.144Z,3.60
2023-05-08T22:06:03.210Z,3.42
2023-05-08T22:08:31.321Z,3.25
2023-05-08T22:11:00.540Z,3.40
2023-05-08T22:13:30.453Z,3.47
2023-05-08T22:15:58.415Z,3.42
2023-05-08T22:18:26.686Z,3.55
2023-05-08T22:20:55.050Z,3.70
2023-05-08T22:23:22.965Z,3.95
2023-05-08T22:25:51.357Z,3.63
2023-05-08T22:28:20.577Z,3.80
2023-05-08T22:30:48.462Z,3.60
2023-05-08T22:33:16.374Z,3.80
2023-05-08T22:35:44.250Z,4.22
2023-05-08T22:38:12.181Z,3.72
2023-05-08T22:40:42.332Z,3.75
2023-05-08T22:43:10.280Z,3.67
2023-05-08T22:45:39.612Z,3.63
2023-05-08T22:48:08.354Z,3.70
2023-05-08T22:50:36.524Z,3.80
2023-05-08T22:53:07.908Z,3.90
2023-05-08T22:55:35.912Z,3.95
2023-05-08T22:58:03.791Z,3.67
2023-05-08T23:00:31.715Z,4.18
2023-05-08T23:03:01.166Z,3.97
2023-05-08T23:05:29.096Z,3.92
2023-05-08T23:07:57.013Z,3.75
2023-05-08T23:10:24.898Z,4.50
2023-05-08T23:12:52.928Z,4.25
2023-05-08T23:15:21.172Z,4.13
2023-05-08T23:17:49.066Z,4.60
2023-05-08T23:20:18.584Z,4.20
2023-05-08T23:22:46.472Z,4.28
2023-05-08T23:25:14.659Z,4.18
2023-05-08T23:27:42.770Z,4.25
2023-05-08T23:30:12.864Z,4.35
2023-05-08T23:32:41.218Z,4.72
2023-05-08T23:35:09.599Z,4.60
2023-05-08T23:37:38.827Z,4.22
2023-05-08T23:40:08.055Z,4.28
2023-05-08T23:42:37.116Z,4.35
2023-05-08T23:45:06.470Z,4.32
2023-05-08T23:47:34.379Z,4.28
2023-05-08T23:50:02.309Z,4.63
2023-05-08T23:52:30.352Z,4.57
2023-05-08T23:54:59.572Z,4.50
2023-05-08T23:57:27.448Z,4.20
2023-05-08T23:59:55.526Z,4.30
